Time;durP1;ratioP1;P1;durP2;ratioP2;P2;SDS_P1;SDS_P2;PMS_P1;PMS_P2;Temp;Humidity;BMP_temperature;BMP_pressure;BME280_temperature;BME280_humidity;BME280_pressure;Samples;Min_cycle;Max_cycle;Signal;HPM_P1;HPM_P2
2021/01/11 00:02:13;;;;;;;35.00;24.60;;;;;;;-0.35;92.87;100851.00;5075189;28;20367;-79
2021/01/11 00:05:18;;;;;;;31.85;24.73;;;;;;;-0.38;93.10;100843.19;5074793;28;20044;-79
2021/01/11 00:08:22;;;;;;;34.13;25.08;;;;;;;-0.38;93.00;100843.19;5074704;28;20041;-78
2021/01/11 00:11:26;;;;;;;36.88;26.67;;;;;;;-0.41;92.99;100841.53;5074429;28;20044;-77
2021/01/11 00:14:32;;;;;;;33.78;23.65;;;;;;;-0.43;92.80;100834.59;5079065;28;20044;-80
2021/01/11 00:17:36;;;;;;;32.22;22.92;;;;;;;-0.44;92.81;100839.00;5095040;28;20395;-80
2021/01/11 00:20:40;;;;;;;30.05;22.38;;;;;;;-0.47;92.59;100840.88;5054464;28;20037;-78
2021/01/11 00:23:45;;;;;;;30.70;21.80;;;;;;;-0.45;92.49;100836.41;5054207;28;20040;-79
2021/01/11 00:26:53;;;;;;;29.55;21.65;;;;;;;-0.45;92.61;100833.78;5054456;28;20045;-78
2021/01/11 00:29:57;;;;;;;29.35;20.95;;;;;;;-0.42;92.51;100838.94;5079056;28;20048;-79
2021/01/11 00:33:01;;;;;;;27.60;20.80;;;;;;;-0.47;92.25;100843.53;5094208;28;20394;-79
2021/01/11 00:36:10;;;;;;;27.30;19.35;;;;;;;-0.48;92.10;100841.78;5077391;28;20044;-79
2021/01/11 00:39:15;;;;;;;27.98;20.60;;;;;;;-0.56;92.05;100846.47;5088731;28;20487;-79
2021/01/11 00:42:20;;;;;;;26.70;18.90;;;;;;;-0.61;91.82;100846.63;5073543;28;20048;-80
2021/01/11 00:45:25;;;;;;;27.70;20.05;;;;;;;-0.62;91.81;100844.91;5081911;28;20036;-78
2021/01/11 00:48:29;;;;;;;24.42;18.98;;;;;;;-0.62;91.63;100847.56;5093549;28;20387;-78
2021/01/11 00:51:36;;;;;;;22.92;17.88;;;;;;;-0.62;91.82;100849.31;5053540;28;20037;-79
2021/01/11 00:54:43;;;;;;;25.48;19.05;;;;;;;-0.66;91.61;100848.56;5079590;28;20041;-79
2021/01/11 00:57:52;;;;;;;26.88;19.95;;;;;;;-0.69;91.46;100851.28;5087372;28;20052;-79
2021/01/11 01:01:00;;;;;;;28.23;19.33;;;;;;;-0.73;91.33;100853.19;5077983;28;20045;-78
2021/01/11 01:04:10;;;;;;;24.80;18.30;;;;;;;-0.68;91.06;100842.47;5076204;28;20041;-78
2021/01/11 01:07:14;;;;;;;24.92;19.13;;;;;;;-0.74;91.44;100847.97;5075095;28;20049;-79
2021/01/11 01:10:18;;;;;;;28.02;17.88;;;;;;;-0.77;91.07;100848.06;5094484;28;20048;-78
2021/01/11 01:13:23;;;;;;;30.40;18.95;;;;;;;-0.82;90.85;100850.00;5081203;28;20045;-78
2021/01/11 01:16:28;;;;;;;26.55;18.30;;;;;;;-0.91;90.73;100853.78;5078552;28;20040;-79
2021/01/11 01:19:32;;;;;;;26.27;17.95;;;;;;;-1.00;90.55;100848.84;5052687;28;20057;-79
2021/01/11 01:22:36;;;;;;;27.15;17.52;;;;;;;-1.05;90.07;100845.47;5077729;28;20044;-78
2021/01/11 01:25:40;;;;;;;23.63;17.08;;;;;;;-1.11;90.22;100852.75;5092679;28;20036;-78
2021/01/11 01:28:45;;;;;;;27.00;18.75;;;;;;;-1.14;90.12;100853.69;5093968;28;20052;-78
2021/01/11 01:31:50;;;;;;;25.10;17.92;;;;;;;-1.16;89.98;100850.22;5094108;28;20047;-78
2021/01/11 01:34:54;;;;;;;22.98;16.88;;;;;;;-1.20;89.99;100859.16;5089017;28;20044;-77
2021/01/11 01:37:58;;;;;;;24.90;17.23;;;;;;;-1.20;90.22;100853.88;5085609;28;20045;-78
2021/01/11 01:41:02;;;;;;;23.85;17.23;;;;;;;-1.20;90.22;100855.63;5090016;28;20044;-75
2021/01/11 01:44:07;;;;;;;22.17;16.70;;;;;;;-1.18;90.39;100853.81;5093862;28;20044;-78
2021/01/11 01:47:11;;;;;;;24.40;16.90;;;;;;;-1.14;90.30;100850.19;5078381;28;20386;-77
2021/01/11 01:50:16;;;;;;;24.00;17.63;;;;;;;-1.19;90.26;100855.63;5073673;28;20040;-77
2021/01/11 01:53:21;;;;;;;23.90;17.70;;;;;;;-1.22;90.26;100854.84;5073532;28;20097;-79
2021/01/11 01:56:26;;;;;;;24.23;16.83;;;;;;;-1.26;90.23;100855.84;5074908;28;20037;-80
2021/01/11 01:59:30;;;;;;;23.67;17.20;;;;;;;-1.31;90.32;100842.84;5089617;28;20053;-79
2021/01/11 02:02:34;;;;;;;23.27;17.67;;;;;;;-1.35;90.34;100851.72;5078378;28;20040;-78
2021/01/11 02:05:38;;;;;;;24.20;16.65;;;;;;;-1.40;90.43;100849.25;5089169;28;20044;-79
2021/01/11 02:08:51;;;;;;;24.55;17.98;;;;;;;-1.44;90.50;100846.75;5073385;28;20040;-79
2021/01/11 02:12:01;;;;;;;25.60;17.50;;;;;;;-1.47;90.60;100838.94;5073481;28;20041;-78
2021/01/11 02:15:14;;;;;;;23.98;17.42;;;;;;;-1.49;90.55;100836.38;5070884;28;20399;-79
2021/01/11 02:18:30;;;;;;;24.83;17.45;;;;;;;-1.49;90.62;100832.88;5079145;28;20044;-80
2021/01/11 02:21:49;;;;;;;23.02;16.75;;;;;;;-1.52;90.66;100833.84;5093731;28;20047;-77
2021/01/11 02:25:16;;;;;;;27.38;17.83;;;;;;;-1.53;90.78;100833.88;5090078;28;20048;-78
2021/01/11 02:28:51;;;;;;;24.13;17.45;;;;;;;-1.52;90.79;100832.97;5076733;28;20045;-79
2021/01/11 02:31:57;;;;;;;24.45;17.27;;;;;;;-1.55;90.68;100823.38;5075572;28;20033;-79
2021/01/11 02:35:05;;;;;;;26.02;16.27;;;;;;;-1.55;90.83;100819.88;5086729;28;20044;-80
2021/01/11 02:38:10;;;;;;;24.23;15.57;;;;;;;-1.57;90.76;100822.59;5087443;28;20044;-77
2021/01/11 02:41:14;;;;;;;21.42;15.63;;;;;;;-1.54;90.71;100811.97;5080251;28;20414;-78
2021/01/11 02:44:18;;;;;;;23.65;15.50;;;;;;;-1.57;90.63;100816.44;5092390;28;20471;-79
2021/01/11 02:47:32;;;;;;;22.88;15.85;;;;;;;-1.61;90.61;100806.94;5096073;28;20040;-80
2021/01/11 02:51:06;;;;;;;27.00;16.10;;;;;;;-1.64;90.63;100805.25;5096676;28;20040;-78
2021/01/11 02:54:18;;;;;;;22.88;16.48;;;;;;;-1.64;90.42;100801.75;5096101;28;20051;-78
2021/01/11 02:57:59;;;;;;;20.25;15.93;;;;;;;-1.64;90.56;100801.75;5092771;28;20036;-77
2021/01/11 03:01:09;;;;;;;25.23;14.90;;;;;;;-1.66;90.30;100796.56;5087982;28;20044;-79
2021/01/11 03:04:20;;;;;;;21.60;15.48;;;;;;;-1.68;90.48;100787.81;5084457;28;20044;-77
2021/01/11 03:07:24;;;;;;;24.13;15.68;;;;;;;-1.68;90.45;100787.00;5096334;28;20040;-78
2021/01/11 03:10:28;;;;;;;23.80;15.45;;;;;;;-1.72;90.36;100778.31;5083666;28;20407;-78
2021/01/11 03:13:48;;;;;;;20.05;14.18;;;;;;;-1.73;90.31;100781.88;5075974;28;20052;-77
2021/01/11 03:16:53;;;;;;;20.25;14.00;;;;;;;-1.75;90.03;100777.56;5075361;28;20048;-80
2021/01/11 03:19:58;;;;;;;22.35;14.40;;;;;;;-1.80;89.95;100769.78;5076202;28;20048;-77
2021/01/11 03:23:02;;;;;;;19.98;14.57;;;;;;;-1.78;90.14;100772.41;5055736;28;20045;-78
2021/01/11 03:26:06;;;;;;;22.23;14.95;;;;;;;-1.77;89.85;100782.00;5057216;28;20033;-77
2021/01/11 03:29:12;;;;;;;22.27;14.45;;;;;;;-1.75;89.84;100780.19;5095833;28;20375;-78
2021/01/11 03:32:16;;;;;;;17.65;12.35;;;;;;;-1.76;89.32;100786.34;5093404;28;20106;-77
2021/01/11 03:35:21;;;;;;;19.13;13.57;;;;;;;-1.78;89.20;100788.19;5074045;28;20396;-77
2021/01/11 03:38:25;;;;;;;20.27;14.43;;;;;;;-1.81;89.12;100785.63;5075432;28;20036;-79
2021/01/11 03:41:29;;;;;;;18.08;12.88;;;;;;;-1.81;88.80;100786.50;5076234;28;20057;-78
2021/01/11 03:44:37;;;;;;;17.77;13.02;;;;;;;-1.83;88.67;100787.47;5084296;28;20044;-79
2021/01/11 03:47:41;;;;;;;18.58;13.25;;;;;;;-1.83;88.78;100783.06;5095569;28;20040;-77
2021/01/11 03:50:45;;;;;;;20.00;12.55;;;;;;;-1.84;88.58;100778.69;5076252;28;20041;-78
2021/01/11 03:53:50;;;;;;;25.42;12.73;;;;;;;-1.84;88.72;100781.31;5081583;28;20052;-79
2021/01/11 03:56:54;;;;;;;21.95;13.00;;;;;;;-1.84;88.42;100786.59;5095253;28;20426;-78
2021/01/11 03:59:59;;;;;;;14.70;11.55;;;;;;;-1.85;88.64;100791.91;5095330;28;20044;-78
2021/01/11 04:03:04;;;;;;;18.73;12.68;;;;;;;-1.83;88.65;100788.31;5087180;28;20052;-79
2021/01/11 04:06:08;;;;;;;17.92;12.48;;;;;;;-1.84;88.67;100783.97;5081291;28;20045;-79
2021/01/11 04:09:12;;;;;;;17.77;12.55;;;;;;;-1.82;88.54;100776.88;5054968;28;20049;-79
2021/01/11 04:12:17;;;;;;;17.17;12.50;;;;;;;-1.82;88.14;100782.13;5071769;28;20044;-77
2021/01/11 04:15:21;;;;;;;18.23;11.40;;;;;;;-1.85;87.92;100781.38;5094991;28;20036;-78
2021/01/11 04:18:25;;;;;;;16.27;11.45;;;;;;;-1.87;87.97;100778.78;5095096;28;20048;-79
2021/01/11 04:21:30;;;;;;;16.10;11.52;;;;;;;-1.87;88.22;100777.91;5092896;28;20398;-79
2021/01/11 04:24:34;;;;;;;18.92;11.80;;;;;;;-1.84;88.26;100776.06;5077406;28;20040;-79
2021/01/11 04:27:38;;;;;;;20.27;12.65;;;;;;;-1.88;88.27;100777.09;5093691;28;20040;-78
2021/01/11 04:30:42;;;;;;;16.15;11.10;;;;;;;-1.87;88.44;100775.28;5084934;28;20040;-79
2021/01/11 04:33:47;;;;;;;18.73;10.95;;;;;;;-1.89;88.28;100777.09;5093639;28;20471;-78
2021/01/11 04:36:51;;;;;;;16.92;10.63;;;;;;;-1.93;88.33;100768.47;5094939;28;20040;-79
2021/01/11 04:39:56;;;;;;;15.20;11.05;;;;;;;-1.95;88.52;100785.19;5094319;28;20044;-77
2021/01/11 04:43:04;;;;;;;17.30;10.65;;;;;;;-1.91;88.47;100781.56;5092193;28;20040;-78
2021/01/11 04:46:08;;;;;;;16.90;10.38;;;;;;;-1.89;88.37;100785.88;5088251;28;20479;-78
2021/01/11 04:49:13;;;;;;;15.93;10.27;;;;;;;-1.92;88.41;100779.81;5082547;28;20479;-80
2021/01/11 04:52:18;;;;;;;16.67;10.18;;;;;;;-1.93;88.26;100791.28;5074111;28;20045;-79
2021/01/11 04:55:23;;;;;;;13.82;9.90;;;;;;;-1.94;88.79;100779.00;5054172;28;20041;-78
2021/01/11 04:58:55;;;;;;;17.50;10.85;;;;;;;-1.94;88.60;100781.66;5054124;28;20060;-76
2021/01/11 05:02:01;;;;;;;16.35;11.23;;;;;;;-1.95;88.66;100786.03;5053292;28;20057;-78
2021/01/11 05:05:07;;;;;;;15.63;11.00;;;;;;;-1.94;88.52;100782.50;5072081;28;20044;-78
2021/01/11 05:08:11;;;;;;;14.68;9.93;;;;;;;-1.93;88.68;100783.38;5083145;28;20048;-78
2021/01/11 05:11:15;;;;;;;13.35;9.57;;;;;;;-1.98;88.82;100787.03;5074025;28;20052;-80
2021/01/11 05:14:20;;;;;;;13.10;9.63;;;;;;;-1.91;88.73;100792.09;5073849;28;20510;-79
2021/01/11 05:17:24;;;;;;;14.55;10.30;;;;;;;-1.93;88.58;100789.50;5074664;28;20450;-80
2021/01/11 05:20:31;;;;;;;15.18;11.10;;;;;;;-1.94;88.65;100790.41;5094179;28;20375;-78
2021/01/11 05:23:39;;;;;;;16.02;10.85;;;;;;;-1.98;88.64;100794.91;5094020;28;20056;-78
2021/01/11 05:26:45;;;;;;;14.32;10.73;;;;;;;-2.02;88.31;100792.38;5083181;28;20040;-80
2021/01/11 05:29:49;;;;;;;14.07;10.15;;;;;;;-1.99;88.94;100795.81;5063316;28;20044;-76
2021/01/11 05:32:54;;;;;;;16.52;10.13;;;;;;;-1.95;88.15;100796.56;5089011;28;20478;-79
2021/01/11 05:36:13;;;;;;;13.98;10.07;;;;;;;-1.98;87.91;100802.81;5094059;28;20044;-78
2021/01/11 05:39:24;;;;;;;11.90;9.05;;;;;;;-1.93;88.05;100799.16;5053758;28;20463;-78
2021/01/11 05:42:29;;;;;;;13.30;9.88;;;;;;;-1.91;88.19;100813.13;5053907;28;20049;-78
2021/01/11 05:45:33;;;;;;;15.20;9.45;;;;;;;-1.93;87.91;100825.47;5053688;28;20040;-78
2021/01/11 05:48:37;;;;;;;15.35;9.18;;;;;;;-1.98;87.85;100834.38;5066029;28;20048;-78
2021/01/11 05:51:42;;;;;;;;;;;;;;;-2.06;87.94;100832.84;5089400;28;20044;-78
2021/01/11 05:54:46;;;;;;;13.82;9.20;;;;;;;-2.14;87.99;100834.81;5053466;28;20280;-80
2021/01/11 05:58:01;;;;;;;13.27;9.35;;;;;;;-2.21;87.87;100826.25;5054411;28;20076;-78
2021/01/11 06:01:06;;;;;;;15.38;9.93;;;;;;;-2.22;88.21;100835.03;5057633;28;20511;-77
2021/01/11 06:04:10;;;;;;;13.73;9.85;;;;;;;-2.21;88.47;100836.78;5056542;28;20052;-78
2021/01/11 06:07:15;;;;;;;77.97;46.92;;;;;;;-2.13;88.40;100831.31;5077972;28;20051;-77
2021/01/11 06:10:21;;;;;;;35.45;22.02;;;;;;;-2.05;88.58;100831.94;5097224;28;20178;-78
2021/01/11 06:13:25;;;;;;;21.85;14.90;;;;;;;-2.02;88.70;100832.72;5096651;28;20052;-77
2021/01/11 06:16:31;;;;;;;16.88;10.77;;;;;;;-2.01;88.13;100844.09;5077713;28;20040;-78
2021/01/11 06:19:35;;;;;;;14.65;9.52;;;;;;;-2.04;88.25;100845.03;5077132;28;20380;-79
2021/01/11 06:22:45;;;;;;;15.10;9.95;;;;;;;-2.03;88.44;100851.19;5056883;28;20475;-77
2021/01/11 06:25:50;;;;;;;13.35;9.13;;;;;;;-2.01;88.25;100839.69;5056721;28;20063;-79
2021/01/11 06:28:54;;;;;;;12.77;8.95;;;;;;;-2.08;87.82;100851.31;5087981;28;20047;-77
2021/01/11 06:32:21;;;;;;;13.38;9.00;;;;;;;-2.15;87.88;100847.09;5095967;28;20051;-78
2021/01/11 06:35:35;;;;;;;11.13;8.02;;;;;;;-2.23;87.38;100858.75;5096008;28;20055;-77
2021/01/11 06:38:40;;;;;;;12.52;8.25;;;;;;;-2.29;87.32;100853.66;5096554;28;20063;-78
2021/01/11 06:41:44;;;;;;;12.00;7.88;;;;;;;-2.30;87.13;100860.69;5085148;28;20062;-78
2021/01/11 06:44:50;;;;;;;13.70;8.10;;;;;;;-2.37;86.94;100864.38;5070170;28;20051;-78
2021/01/11 06:48:02;;;;;;;12.27;8.98;;;;;;;-2.36;87.15;100874.00;5073819;28;20407;-78
2021/01/11 06:51:09;;;;;;;12.35;8.13;;;;;;;-2.34;87.40;100874.81;5075550;28;20047;-82
2021/01/11 06:54:15;;;;;;;14.95;9.15;;;;;;;-2.33;87.27;100873.91;5075825;28;20055;-78
2021/01/11 06:57:28;;;;;;;14.73;9.20;;;;;;;-2.35;87.58;100883.63;5063543;28;20067;-78
2021/01/11 07:00:36;;;;;;;14.95;9.13;;;;;;;-2.38;87.63;100881.06;5081688;28;20056;-77
2021/01/11 07:03:50;;;;;;;14.27;9.38;;;;;;;-2.36;87.46;100887.13;5084678;28;20056;-79
2021/01/11 07:07:00;;;;;;;15.10;9.52;;;;;;;-2.41;87.16;100883.78;5079865;28;20070;-80
2021/01/11 07:10:04;;;;;;;12.93;9.30;;;;;;;-2.42;86.60;100884.66;5094380;28;20047;-79
2021/01/11 07:13:17;;;;;;;15.98;9.18;;;;;;;-2.42;86.62;100897.81;5095420;28;20427;-79
2021/01/11 07:16:22;;;;;;;12.00;8.75;;;;;;;-2.43;86.76;100893.47;5094859;28;20055;-80
2021/01/11 07:19:41;;;;;;;15.90;9.75;;;;;;;-2.44;86.57;100902.25;5092927;28;20051;-80
2021/01/11 07:22:47;;;;;;;14.18;9.18;;;;;;;-2.46;86.61;100911.06;5089952;28;20051;-81
2021/01/11 07:25:55;;;;;;;16.15;9.48;;;;;;;-2.49;86.28;100909.38;5084107;28;20117;-80
2021/01/11 07:29:17;;;;;;;15.30;9.90;;;;;;;-2.51;86.62;100913.81;5086844;28;20063;-79
2021/01/11 07:32:23;;;;;;;14.57;9.68;;;;;;;-2.48;86.53;100926.00;5074982;28;20060;-77
2021/01/11 07:35:27;;;;;;;19.85;8.98;;;;;;;-2.45;86.55;100923.31;5074438;28;20048;-81
2021/01/11 07:38:33;;;;;;;14.18;8.32;;;;;;;-2.40;86.20;100940.69;5073953;28;20047;-78
2021/01/11 07:41:45;;;;;;;13.63;9.35;;;;;;;-2.37;86.22;100932.72;5074630;28;20059;-79
2021/01/11 07:44:49;;;;;;;15.60;8.45;;;;;;;-2.26;85.73;100937.69;5078426;28;20047;-80
2021/01/11 07:47:54;;;;;;;20.13;9.25;;;;;;;-2.20;85.31;100938.38;5080558;28;20052;-77
2021/01/11 07:51:08;;;;;;;11.23;8.45;;;;;;;-2.15;84.69;100931.25;5070678;28;20059;-79
2021/01/11 07:54:20;;;;;;;13.75;7.88;;;;;;;-2.09;84.50;100949.50;5064743;28;20052;-79
2021/01/11 07:57:28;;;;;;;11.48;8.00;;;;;;;-2.03;84.40;100957.25;5056854;28;20056;-78
2021/01/11 08:00:33;;;;;;;10.80;7.97;;;;;;;-1.94;84.42;100958.75;5053365;28;20048;-80
2021/01/11 08:03:37;;;;;;;11.43;8.85;;;;;;;-1.79;83.68;100965.34;5053202;28;20510;-79
2021/01/11 08:06:45;;;;;;;12.68;8.48;;;;;;;-1.66;83.31;100964.97;5053264;28;20047;-80
2021/01/11 08:09:54;;;;;;;10.52;8.38;;;;;;;-1.61;82.69;100970.09;5054246;28;20044;-80
2021/01/11 08:13:06;;;;;;;15.55;8.95;;;;;;;-1.59;82.54;100968.28;5069736;28;20043;-80
2021/01/11 08:16:12;;;;;;;11.95;8.40;;;;;;;-1.61;82.80;100967.47;5093550;28;20047;-79
2021/01/11 08:19:20;;;;;;;12.20;8.25;;;;;;;-1.50;82.86;100973.28;5094075;28;20055;-80
2021/01/11 08:22:28;;;;;;;14.68;8.68;;;;;;;-1.47;82.99;100965.28;5081092;28;20051;-81
2021/01/11 08:25:33;;;;;;;14.48;8.88;;;;;;;-1.47;82.84;100974.06;5059942;28;20067;-79
2021/01/11 08:28:38;;;;;;;16.45;9.00;;;;;;;-1.43;82.79;100985.34;5073519;28;20059;-81
2021/01/11 08:31:46;;;;;;;13.68;8.07;;;;;;;-1.40;82.36;100996.66;5073214;28;20048;-80
2021/01/11 08:34:50;;;;;;;11.00;8.45;;;;;;;-1.43;82.43;100998.50;5073365;28;20063;-81
2021/01/11 08:38:02;;;;;;;12.48;8.05;;;;;;;-1.36;82.89;101006.19;5073769;28;20053;-80
2021/01/11 08:41:10;;;;;;;14.45;8.90;;;;;;;-1.32;82.76;100993.81;5073544;28;20048;-80
2021/01/11 08:44:30;;;;;;;12.85;8.02;;;;;;;-1.15;82.75;101006.47;5073247;28;20063;-81
2021/01/11 08:47:37;;;;;;;13.82;8.38;;;;;;;-1.14;82.95;101011.72;5072809;28;20047;-80
2021/01/11 08:50:55;;;;;;;13.88;8.55;;;;;;;-1.04;82.75;101018.44;5091727;28;20047;-80
2021/01/11 08:54:00;;;;;;;12.23;8.30;;;;;;;-0.94;82.35;101014.59;5071060;28;20514;-81
2021/01/11 08:57:14;;;;;;;14.90;8.48;;;;;;;-0.90;82.02;101007.47;5072995;28;20492;-79
2021/01/11 09:00:19;;;;;;;13.13;8.27;;;;;;;-0.87;81.95;101024.06;5079458;28;20043;-80
2021/01/11 09:03:43;;;;;;;11.32;8.38;;;;;;;-0.75;82.25;101022.81;5088293;28;20114;-79
2021/01/11 09:06:47;;;;;;;21.50;8.50;;;;;;;-0.73;81.86;101021.84;5073073;28;20064;-78
2021/01/11 09:09:52;;;;;;;11.23;8.10;;;;;;;-0.56;81.47;101031.00;5073906;28;20541;-78
2021/01/11 09:12:56;;;;;;;14.35;7.65;;;;;;;-0.45;81.36;101034.16;5073835;28;20063;-79
2021/01/11 09:16:11;;;;;;;11.93;8.07;;;;;;;-0.30;81.11;101042.47;5073512;28;20419;-77
2021/01/11 09:19:19;;;;;;;12.85;9.02;;;;;;;-0.24;81.12;101042.25;5072830;28;20051;-77
2021/01/11 09:22:34;;;;;;;17.75;10.00;;;;;;;-0.25;81.20;101048.44;5078015;28;20501;-77
2021/01/11 09:25:39;;;;;;;14.35;10.05;;;;;;;-0.27;81.24;101052.06;5072038;28;20044;-79
2021/01/11 09:28:43;;;;;;;13.43;9.57;;;;;;;-0.25;81.53;101056.38;5080743;28;20487;-78
2021/01/11 09:31:48;;;;;;;17.27;10.35;;;;;;;-0.17;81.15;101062.22;5081048;28;20047;-78
2021/01/11 09:34:53;;;;;;;13.23;9.23;;;;;;;-0.07;81.00;101065.41;5089020;28;20056;-78
2021/01/11 09:37:57;;;;;;;14.82;9.50;;;;;;;0.12;80.77;101069.19;5077257;28;20525;-78
2021/01/11 09:41:01;;;;;;;13.02;9.57;;;;;;;0.42;80.15;101068.13;5080601;28;20059;-78
2021/01/11 09:44:07;;;;;;;14.43;9.95;;;;;;;0.47;79.39;101081.19;5076961;28;20056;-78
2021/01/11 09:47:11;;;;;;;13.70;8.50;;;;;;;0.51;79.00;101073.09;5076863;28;20055;-77
2021/01/11 09:50:16;;;;;;;14.45;9.13;;;;;;;0.70;78.99;101078.56;5076479;28;20055;-78
2021/01/11 09:53:20;;;;;;;16.02;10.00;;;;;;;0.90;78.59;101067.28;5096200;28;20062;-79
2021/01/11 09:56:25;;;;;;;118.05;68.15;;;;;;;1.03;78.28;101073.84;5097108;28;20398;-78
2021/01/11 09:59:29;;;;;;;47.05;28.48;;;;;;;1.25;77.88;101077.41;5088229;28;20032;-78
2021/01/11 10:02:34;;;;;;;14.55;10.15;;;;;;;1.42;77.42;101082.91;5075176;28;20048;-79
2021/01/11 10:05:39;;;;;;;15.00;9.23;;;;;;;1.48;76.81;101079.16;5085122;28;20137;-78
2021/01/11 10:08:43;;;;;;;13.18;9.20;;;;;;;1.59;76.65;101077.81;5097010;28;20043;-77
2021/01/11 10:11:51;;;;;;;11.68;8.90;;;;;;;1.81;77.08;101081.31;5095776;28;20051;-77
2021/01/11 10:14:55;;;;;;;13.85;8.82;;;;;;;1.90;76.32;101069.53;5084428;28;20517;-79
2021/01/11 10:17:59;;;;;;;12.93;9.10;;;;;;;1.82;75.47;101069.84;5080575;28;20047;-76
2021/01/11 10:21:03;;;;;;;;;;;;;;;1.62;75.79;101072.41;5084206;28;20063;-77
2021/01/11 10:24:08;;;;;;;;;;;;;;;1.65;75.88;101068.78;5097053;28;20366;-79
2021/01/11 10:27:12;;;;;;;11.52;8.52;;;;;;;1.55;75.98;101070.94;5086476;28;20286;-77
2021/01/11 10:30:18;;;;;;;15.68;9.63;;;;;;;1.67;76.88;101069.56;5060294;28;20051;-76
2021/01/11 10:33:22;;;;;;;12.50;8.25;;;;;;;1.72;76.67;101062.31;5086673;28;20462;-76
2021/01/11 10:36:29;;;;;;;12.95;9.40;;;;;;;1.75;76.74;101063.03;5075919;28;20047;-78
2021/01/11 10:39:34;;;;;;;11.93;8.63;;;;;;;1.78;76.87;101062.91;5075145;28;20494;-79
2021/01/11 10:42:39;;;;;;;12.02;9.30;;;;;;;1.84;77.46;101057.41;5081694;28;20051;-77
2021/01/11 10:45:43;;;;;;;;;;;;;;;1.85;77.71;101051.16;5074555;28;20047;-76
2021/01/11 10:48:48;;;;;;;11.10;8.40;;;;;;;1.93;78.02;101045.56;5067072;28;19917;-77
2021/01/11 10:51:54;;;;;;;14.40;8.80;;;;;;;2.14;77.78;101031.44;5085563;28;20111;-75
2021/01/11 10:54:59;;;;;;;14.10;8.55;;;;;;;2.31;77.02;101034.22;5075348;28;20060;-78
2021/01/11 10:58:03;;;;;;;11.82;9.02;;;;;;;2.46;76.00;101032.69;5070659;28;20064;-78
2021/01/11 11:01:10;;;;;;;14.98;9.07;;;;;;;2.67;75.36;101026.44;5075041;28;20063;-77
2021/01/11 11:04:15;;;;;;;15.35;9.63;;;;;;;2.85;75.36;101028.25;5070255;28;20424;-77
2021/01/11 11:07:20;;;;;;;14.30;9.73;;;;;;;3.01;75.07;101023.97;5075343;28;20055;-76
2021/01/11 11:10:25;;;;;;;16.38;8.85;;;;;;;3.11;75.01;101019.97;5067994;28;20056;-78
2021/01/11 11:13:31;;;;;;;11.95;9.20;;;;;;;3.23;74.67;101021.19;5074550;28;20056;-78
2021/01/11 11:16:38;;;;;;;14.68;9.65;;;;;;;3.27;74.54;101010.38;5075189;28;20486;-78
2021/01/11 11:19:43;;;;;;;14.13;9.75;;;;;;;3.23;74.28;101003.47;5074914;28;20489;-76
2021/01/11 11:22:47;;;;;;;14.07;9.68;;;;;;;3.31;74.44;100991.66;5074832;28;20062;-75
2021/01/11 11:25:52;;;;;;;15.18;10.85;;;;;;;3.12;74.41;100994.31;5066605;28;20056;-77
2021/01/11 11:28:56;;;;;;;12.02;9.45;;;;;;;3.15;74.62;100992.38;5095422;28;20090;-77
2021/01/11 11:32:01;;;;;;;14.75;11.05;;;;;;;3.27;74.75;100981.19;5078777;28;20047;-77
2021/01/11 11:35:06;;;;;;;14.90;10.02;;;;;;;3.34;74.67;100991.47;5074344;28;20052;-76
2021/01/11 11:38:10;;;;;;;16.50;9.93;;;;;;;3.55;74.63;100971.88;5074043;28;20115;-78
2021/01/11 11:41:18;;;;;;;58.95;11.80;;;;;;;3.82;74.42;100975.81;5074527;28;20043;-78
2021/01/11 11:44:23;;;;;;;20.60;10.63;;;;;;;4.01;73.37;100971.28;5084496;28;20067;-77
2021/01/11 11:47:32;;;;;;;15.48;11.00;;;;;;;4.16;72.58;100957.22;5075967;28;20059;-75
2021/01/11 11:50:36;;;;;;;13.68;10.70;;;;;;;4.26;72.81;100957.59;5085953;28;20051;-76
2021/01/11 11:53:41;;;;;;;15.88;10.93;;;;;;;4.34;72.47;100955.41;5086382;28;20054;-78
2021/01/11 11:56:47;;;;;;;15.32;11.75;;;;;;;4.23;72.52;100941.81;5094003;28;20066;-77
2021/01/11 11:59:51;;;;;;;17.58;12.18;;;;;;;4.15;72.73;100942.22;5094841;28;20407;-78
2021/01/11 12:02:56;;;;;;;18.15;12.88;;;;;;;4.21;72.91;100944.56;5093856;28;20051;-78
2021/01/11 12:06:00;;;;;;;16.08;12.77;;;;;;;4.30;72.32;100933.44;5077615;28;20051;-77
2021/01/11 12:09:05;;;;;;;16.83;11.98;;;;;;;4.29;71.53;100931.75;5078910;28;20051;-77
2021/01/11 12:12:14;;;;;;;17.23;12.93;;;;;;;4.11;71.96;100926.53;5072734;28;20047;-75
2021/01/11 12:15:21;;;;;;;20.55;12.82;;;;;;;4.08;71.88;100914.25;5086374;28;20051;-78
2021/01/11 12:18:25;;;;;;;17.35;11.85;;;;;;;4.25;72.02;100924.84;5054446;28;20048;-77
2021/01/11 12:21:35;;;;;;;16.48;11.02;;;;;;;4.23;70.98;100918.78;5053630;28;20071;-77
2021/01/11 12:24:40;;;;;;;18.20;11.05;;;;;;;4.06;71.87;100908.19;5059216;28;20047;-78
2021/01/11 12:27:44;;;;;;;17.15;11.80;;;;;;;4.02;72.36;100906.63;5077290;28;20048;-77
2021/01/11 12:30:48;;;;;;;17.63;11.85;;;;;;;4.01;73.12;100901.38;5094036;28;20502;-77
2021/01/11 12:33:53;;;;;;;13.25;10.93;;;;;;;4.08;73.91;100902.78;5076235;28;20395;-77
2021/01/11 12:36:57;;;;;;;14.20;11.23;;;;;;;4.01;74.16;100899.59;5073728;28;20079;-78
2021/01/11 12:40:01;;;;;;;17.02;11.48;;;;;;;3.99;74.49;100901.47;5081757;28;20466;-76
2021/01/11 12:43:07;;;;;;;19.33;12.10;;;;;;;3.86;73.56;100898.59;5076029;28;20055;-78
2021/01/11 12:46:13;;;;;;;17.27;11.40;;;;;;;3.80;73.91;100898.88;5073699;28;20066;-78
2021/01/11 12:49:17;;;;;;;14.57;11.65;;;;;;;3.75;74.13;100892.94;5072540;28;20048;-78
2021/01/11 12:52:21;;;;;;;15.23;12.15;;;;;;;3.75;74.23;100892.94;5079084;28;20051;-77
2021/01/11 12:55:30;;;;;;;14.48;11.27;;;;;;;3.78;74.30;100883.97;5084216;28;20051;-78
2021/01/11 12:58:37;;;;;;;14.88;10.43;;;;;;;3.73;74.39;100883.34;5092052;28;20050;-77
2021/01/11 13:01:42;;;;;;;13.60;9.88;;;;;;;3.66;74.28;100877.50;5091101;28;20149;-78
2021/01/11 13:04:49;;;;;;;13.70;9.38;;;;;;;3.61;74.20;100884.84;5090956;28;20055;-77
2021/01/11 13:07:53;;;;;;;14.93;9.30;;;;;;;3.56;74.13;100888.66;5092672;28;20051;-78
2021/01/11 13:10:58;;;;;;;16.40;10.88;;;;;;;3.47;74.20;100873.22;5081998;28;20048;-79
2021/01/11 13:14:02;;;;;;;13.73;10.45;;;;;;;3.43;74.37;100874.31;5087229;28;20051;-77
2021/01/11 13:17:06;;;;;;;15.20;11.02;;;;;;;3.54;74.53;100879.91;5087260;28;20052;-78
2021/01/11 13:20:12;;;;;;;13.23;11.10;;;;;;;3.63;74.16;100867.03;5066733;28;20051;-78
2021/01/11 13:23:16;;;;;;;12.32;9.23;;;;;;;3.79;73.62;100867.13;5068906;28;20052;-78
2021/01/11 13:26:26;;;;;;;15.57;11.10;;;;;;;3.92;73.28;100874.38;5073335;28;20072;-79
2021/01/11 13:29:30;;;;;;;15.68;11.65;;;;;;;4.09;73.08;100872.63;5073959;28;20044;-77
2021/01/11 13:32:35;;;;;;;16.77;11.18;;;;;;;4.17;72.45;100879.25;5071501;28;20085;-78
2021/01/11 13:35:40;;;;;;;15.43;11.25;;;;;;;4.14;72.56;100878.56;5012856;28;20057;-78
2021/01/11 13:38:44;;;;;;;14.52;11.25;;;;;;;4.00;72.48;100873.13;5013349;28;20053;-77
2021/01/11 13:41:48;;;;;;;18.48;12.63;;;;;;;3.87;73.35;100881.72;5013452;28;20068;-78
2021/01/11 13:44:53;;;;;;;20.05;14.88;;;;;;;3.71;74.92;100894.06;5013545;28;20057;-78
2021/01/11 13:47:58;;;;;;;22.73;17.23;;;;;;;3.51;77.18;100896.00;5014182;28;20496;-78
2021/01/11 13:51:03;;;;;;;22.48;16.10;;;;;;;3.31;78.65;100891.69;5021510;28;20052;-76
2021/01/11 13:54:07;;;;;;;24.35;16.15;;;;;;;3.04;79.77;100888.59;5054251;28;20060;-78
2021/01/11 13:57:11;;;;;;;20.85;15.60;;;;;;;2.94;79.64;100894.44;5035598;28;20048;-77
2021/01/11 14:00:16;;;;;;;20.48;16.00;;;;;;;2.82;79.28;100887.91;5051161;28;20112;-78
2021/01/11 14:03:21;;;;;;;23.35;15.07;;;;;;;2.77;78.62;100884.59;5046028;28;20116;-76
2021/01/11 14:06:30;;;;;;;20.45;16.65;;;;;;;2.78;78.16;100890.78;5034777;28;20439;-76
2021/01/11 14:09:35;;;;;;;27.65;17.63;;;;;;;2.76;78.04;100890.84;5036656;28;20820;-78
2021/01/11 14:12:40;;;;;;;25.77;18.25;;;;;;;2.73;77.98;100887.47;5032365;28;20052;-78
2021/01/11 14:15:44;;;;;;;21.85;16.02;;;;;;;2.64;77.55;100880.84;5031603;28;20519;-75
2021/01/11 14:18:50;;;;;;;24.05;17.08;;;;;;;2.64;76.87;100878.19;5031017;28;20064;-79